sensor_id;sensor_type;location;lat;lon;timestamp;P1;durP1;ratioP1;P2;durP2;ratioP2
52740;SDS011;38634;52.138;9.912;2023-12-29T00:01:05;22.67;;;3.95;;
52740;SDS011;38634;52.138;9.912;2023-12-29T00:03:50;24.70;;;4.25;;
52740;SDS011;38634;52.138;9.912;2023-12-29T00:06:37;22.33;;;3.60;;
52740;SDS011;38634;52.138;9.912;2023-12-29T00:09:22;23.73;;;4.20;;
52740;SDS011;38634;52.138;9.912;2023-12-29T00:12:07;22.35;;;3.80;;
52740;SDS011;38634;52.138;9.912;2023-12-29T00:14:52;23.58;;;4.30;;
52740;SDS011;38634;52.138;9.912;2023-12-29T00:17:36;24.23;;;4.72;;
52740;SDS011;38634;52.138;9.912;2023-12-29T00:20:23;32.92;;;5.47;;
52740;SDS011;38634;52.138;9.912;2023-12-29T00:23:08;24.83;;;4.07;;
52740;SDS011;38634;52.138;9.912;2023-12-29T00:25:52;23.70;;;3.97;;
52740;SDS011;38634;52.138;9.912;2023-12-29T00:28:37;25.13;;;4.18;;
52740;SDS011;38634;52.138;9.912;2023-12-29T00:31:24;23.83;;;4.03;;
52740;SDS011;38634;52.138;9.912;2023-12-29T00:34:08;22.92;;;4.00;;
52740;SDS011;38634;52.138;9.912;2023-12-29T00:36:53;25.25;;;5.07;;
52740;SDS011;38634;52.138;9.912;2023-12-29T00:39:38;22.90;;;4.03;;
52740;SDS011;38634;52.138;9.912;2023-12-29T00:42:22;24.05;;;4.15;;
52740;SDS011;38634;52.138;9.912;2023-12-29T00:45:07;22.88;;;3.85;;
52740;SDS011;38634;52.138;9.912;2023-12-29T00:47:52;24.13;;;4.07;;
52740;SDS011;38634;52.138;9.912;2023-12-29T00:50:37;26.45;;;4.68;;
52740;SDS011;38634;52.138;9.912;2023-12-29T00:53:21;26.20;;;5.13;;
52740;SDS011;38634;52.138;9.912;2023-12-29T00:56:11;22.65;;;4.00;;
52740;SDS011;38634;52.138;9.912;2023-12-29T00:58:55;18.42;;;3.38;;
52740;SDS011;38634;52.138;9.912;2023-12-29T01:01:40;23.50;;;4.32;;
52740;SDS011;38634;52.138;9.912;2023-12-29T01:04:25;23.83;;;4.00;;
52740;SDS011;38634;52.138;9.912;2023-12-29T01:07:09;23.50;;;4.20;;
52740;SDS011;38634;52.138;9.912;2023-12-29T01:09:54;27.80;;;4.43;;
52740;SDS011;38634;52.138;9.912;2023-12-29T01:12:39;28.33;;;4.65;;
52740;SDS011;38634;52.138;9.912;2023-12-29T01:15:24;27.67;;;4.65;;
52740;SDS011;38634;52.138;9.912;2023-12-29T01:18:08;24.88;;;4.15;;
52740;SDS011;38634;52.138;9.912;2023-12-29T01:20:53;18.42;;;3.78;;
52740;SDS011;38634;52.138;9.912;2023-12-29T01:23:38;24.63;;;4.18;;
52740;SDS011;38634;52.138;9.912;2023-12-29T01:26:22;17.27;;;3.58;;
52740;SDS011;38634;52.138;9.912;2023-12-29T01:29:07;22.42;;;4.05;;
52740;SDS011;38634;52.138;9.912;2023-12-29T01:31:51;26.05;;;4.60;;
52740;SDS011;38634;52.138;9.912;2023-12-29T01:34:36;22.45;;;4.20;;
52740;SDS011;38634;52.138;9.912;2023-12-29T01:37:21;23.60;;;4.20;;
52740;SDS011;38634;52.138;9.912;2023-12-29T01:40:05;20.98;;;3.80;;
52740;SDS011;38634;52.138;9.912;2023-12-29T01:42:50;20.48;;;3.90;;
52740;SDS011;38634;52.138;9.912;2023-12-29T01:45:35;24.15;;;4.93;;
52740;SDS011;38634;52.138;9.912;2023-12-29T01:48:19;25.02;;;4.32;;
52740;SDS011;38634;52.138;9.912;2023-12-29T01:51:07;24.15;;;4.15;;
52740;SDS011;38634;52.138;9.912;2023-12-29T01:53:52;23.80;;;5.13;;
52740;SDS011;38634;52.138;9.912;2023-12-29T01:56:38;25.60;;;4.35;;
52740;SDS011;38634;52.138;9.912;2023-12-29T01:59:24;24.27;;;4.03;;
52740;SDS011;38634;52.138;9.912;2023-12-29T02:02:09;24.65;;;4.55;;
52740;SDS011;38634;52.138;9.912;2023-12-29T02:04:53;26.08;;;4.20;;
52740;SDS011;38634;52.138;9.912;2023-12-29T02:07:38;23.42;;;3.67;;
52740;SDS011;38634;52.138;9.912;2023-12-29T02:10:25;38.60;;;5.57;;
52740;SDS011;38634;52.138;9.912;2023-12-29T02:13:09;23.80;;;3.90;;
52740;SDS011;38634;52.138;9.912;2023-12-29T02:15:54;25.10;;;3.90;;
52740;SDS011;38634;52.138;9.912;2023-12-29T02:18:41;22.58;;;3.88;;
52740;SDS011;38634;52.138;9.912;2023-12-29T02:21:28;19.13;;;3.22;;
52740;SDS011;38634;52.138;9.912;2023-12-29T02:24:12;24.23;;;3.80;;
52740;SDS011;38634;52.138;9.912;2023-12-29T02:27:08;23.17;;;4.43;;
52740;SDS011;38634;52.138;9.912;2023-12-29T02:33:01;23.40;;;4.07;;
52740;SDS011;38634;52.138;9.912;2023-12-29T02:35:51;26.00;;;4.15;;
52740;SDS011;38634;52.138;9.912;2023-12-29T02:38:36;17.98;;;3.15;;
52740;SDS011;38634;52.138;9.912;2023-12-29T02:41:21;26.23;;;4.35;;
52740;SDS011;38634;52.138;9.912;2023-12-29T02:44:06;24.60;;;4.03;;
52740;SDS011;38634;52.138;9.912;2023-12-29T02:46:50;25.58;;;4.13;;
52740;SDS011;38634;52.138;9.912;2023-12-29T02:49:35;22.23;;;3.40;;
52740;SDS011;38634;52.138;9.912;2023-12-29T02:52:20;24.17;;;4.13;;
52740;SDS011;38634;52.138;9.912;2023-12-29T02:55:04;26.75;;;4.28;;
52740;SDS011;38634;52.138;9.912;2023-12-29T02:57:49;29.67;;;4.78;;
52740;SDS011;38634;52.138;9.912;2023-12-29T08:51:36;23.40;;;3.92;;
52740;SDS011;38634;52.138;9.912;2023-12-29T08:54:21;22.30;;;4.07;;
52740;SDS011;38634;52.138;9.912;2023-12-29T08:57:05;20.15;;;4.00;;
52740;SDS011;38634;52.138;9.912;2023-12-29T08:59:51;25.77;;;4.18;;
52740;SDS011;38634;52.138;9.912;2023-12-29T09:02:35;25.33;;;4.18;;
52740;SDS011;38634;52.138;9.912;2023-12-29T09:05:20;23.75;;;3.95;;
52740;SDS011;38634;52.138;9.912;2023-12-29T09:08:04;21.90;;;4.00;;
52740;SDS011;38634;52.138;9.912;2023-12-29T09:10:49;23.42;;;3.85;;
52740;SDS011;38634;52.138;9.912;2023-12-29T09:13:33;23.75;;;4.45;;
52740;SDS011;38634;52.138;9.912;2023-12-29T09:16:18;37.63;;;4.97;;
52740;SDS011;38634;52.138;9.912;2023-12-29T09:19:03;22.23;;;3.92;;
52740;SDS011;38634;52.138;9.912;2023-12-29T09:21:47;23.42;;;4.00;;
52740;SDS011;38634;52.138;9.912;2023-12-29T09:24:32;29.35;;;5.63;;
52740;SDS011;38634;52.138;9.912;2023-12-29T09:27:16;23.95;;;3.92;;
52740;SDS011;38634;52.138;9.912;2023-12-29T09:30:01;22.50;;;3.95;;
52740;SDS011;38634;52.138;9.912;2023-12-29T09:32:46;20.33;;;3.95;;
52740;SDS011;38634;52.138;9.912;2023-12-29T09:35:30;22.58;;;3.90;;
52740;SDS011;38634;52.138;9.912;2023-12-29T09:38:15;152.45;;;20.77;;
52740;SDS011;38634;52.138;9.912;2023-12-29T09:41:03;89.47;;;12.77;;
52740;SDS011;38634;52.138;9.912;2023-12-29T09:43:49;49.90;;;7.38;;
52740;SDS011;38634;52.138;9.912;2023-12-29T09:46:34;52.95;;;7.60;;
52740;SDS011;38634;52.138;9.912;2023-12-29T09:49:19;61.63;;;9.25;;
52740;SDS011;38634;52.138;9.912;2023-12-29T09:52:05;73.55;;;10.73;;
52740;SDS011;38634;52.138;9.912;2023-12-29T09:54:53;58.80;;;8.57;;
52740;SDS011;38634;52.138;9.912;2023-12-29T09:57:38;76.10;;;10.88;;
52740;SDS011;38634;52.138;9.912;2023-12-29T10:00:23;87.50;;;12.15;;
52740;SDS011;38634;52.138;9.912;2023-12-29T10:03:08;48.15;;;7.30;;
52740;SDS011;38634;52.138;9.912;2023-12-29T10:05:54;39.95;;;6.25;;
52740;SDS011;38634;52.138;9.912;2023-12-29T10:08:41;83.63;;;11.75;;
52740;SDS011;38634;52.138;9.912;2023-12-29T10:11:30;61.08;;;8.85;;
52740;SDS011;38634;52.138;9.912;2023-12-29T10:14:31;53.15;;;7.93;;
52740;SDS011;38634;52.138;9.912;2023-12-29T10:17:51;85.43;;;11.90;;
52740;SDS011;38634;52.138;9.912;2023-12-29T10:21:01;56.63;;;8.10;;
52740;SDS011;38634;52.138;9.912;2023-12-29T10:26:56;71.43;;;9.70;;
52740;SDS011;38634;52.138;9.912;2023-12-29T10:29:41;100.43;;;12.73;;
52740;SDS011;38634;52.138;9.912;2023-12-29T10:32:26;76.38;;;10.50;;
52740;SDS011;38634;52.138;9.912;2023-12-29T10:35:12;52.20;;;7.30;;
52740;SDS011;38634;52.138;9.912;2023-12-29T10:38:07;80.50;;;10.85;;
52740;SDS011;38634;52.138;9.912;2023-12-29T10:41:09;53.97;;;7.57;;
52740;SDS011;38634;52.138;9.912;2023-12-29T10:43:56;90.55;;;12.38;;
52740;SDS011;38634;52.138;9.912;2023-12-29T10:46:51;77.18;;;10.38;;
52740;SDS011;38634;52.138;9.912;2023-12-29T10:49:36;87.20;;;11.65;;
52740;SDS011;38634;52.138;9.912;2023-12-29T10:52:21;76.00;;;10.40;;
52740;SDS011;38634;52.138;9.912;2023-12-29T10:55:08;56.55;;;8.45;;
52740;SDS011;38634;52.138;9.912;2023-12-29T10:57:59;84.28;;;11.73;;
52740;SDS011;38634;52.138;9.912;2023-12-29T11:00:44;100.78;;;12.57;;
52740;SDS011;38634;52.138;9.912;2023-12-29T11:03:29;57.55;;;7.80;;
52740;SDS011;38634;52.138;9.912;2023-12-29T11:06:15;88.57;;;11.80;;
52740;SDS011;38634;52.138;9.912;2023-12-29T11:09:00;96.90;;;12.38;;
52740;SDS011;38634;52.138;9.912;2023-12-29T11:11:45;61.28;;;9.00;;
52740;SDS011;38634;52.138;9.912;2023-12-29T11:14:30;48.80;;;7.20;;
52740;SDS011;38634;52.138;9.912;2023-12-29T11:17:16;76.15;;;10.52;;
52740;SDS011;38634;52.138;9.912;2023-12-29T11:20:01;80.40;;;10.70;;
52740;SDS011;38634;52.138;9.912;2023-12-29T11:22:48;61.35;;;9.20;;
52740;SDS011;38634;52.138;9.912;2023-12-29T11:25:32;41.95;;;6.22;;
52740;SDS011;38634;52.138;9.912;2023-12-29T11:28:17;66.22;;;8.82;;
52740;SDS011;38634;52.138;9.912;2023-12-29T11:31:02;107.88;;;13.27;;
52740;SDS011;38634;52.138;9.912;2023-12-29T11:33:50;61.92;;;9.05;;
52740;SDS011;38634;52.138;9.912;2023-12-29T11:36:41;66.20;;;9.23;;
52740;SDS011;38634;52.138;9.912;2023-12-29T11:39:40;80.60;;;11.93;;
52740;SDS011;38634;52.138;9.912;2023-12-29T11:42:44;62.97;;;9.27;;
52740;SDS011;38634;52.138;9.912;2023-12-29T11:45:30;51.42;;;7.88;;
52740;SDS011;38634;52.138;9.912;2023-12-29T11:51:42;60.53;;;8.73;;
52740;SDS011;38634;52.138;9.912;2023-12-29T11:54:30;70.72;;;10.38;;
52740;SDS011;38634;52.138;9.912;2023-12-29T11:57:14;92.35;;;13.23;;
52740;SDS011;38634;52.138;9.912;2023-12-29T12:00:15;85.82;;;11.65;;
52740;SDS011;38634;52.138;9.912;2023-12-29T12:03:00;72.25;;;11.02;;
52740;SDS011;38634;52.138;9.912;2023-12-29T12:05:45;68.18;;;9.70;;
52740;SDS011;38634;52.138;9.912;2023-12-29T12:08:33;53.25;;;7.95;;
52740;SDS011;38634;52.138;9.912;2023-12-29T12:17:37;82.30;;;10.85;;
52740;SDS011;38634;52.138;9.912;2023-12-29T12:20:22;74.28;;;10.20;;
52740;SDS011;38634;52.138;9.912;2023-12-29T12:23:11;72.28;;;10.23;;
52740;SDS011;38634;52.138;9.912;2023-12-29T12:26:02;65.10;;;9.15;;
52740;SDS011;38634;52.138;9.912;2023-12-29T12:28:51;63.08;;;8.63;;
52740;SDS011;38634;52.138;9.912;2023-12-29T12:31:37;53.15;;;7.43;;
52740;SDS011;38634;52.138;9.912;2023-12-29T12:34:22;55.25;;;8.20;;
52740;SDS011;38634;52.138;9.912;2023-12-29T12:37:07;63.25;;;9.05;;
52740;SDS011;38634;52.138;9.912;2023-12-29T12:39:52;60.92;;;8.57;;
52740;SDS011;38634;52.138;9.912;2023-12-29T12:42:38;46.08;;;6.82;;
52740;SDS011;38634;52.138;9.912;2023-12-29T12:45:26;83.50;;;12.15;;
52740;SDS011;38634;52.138;9.912;2023-12-29T12:48:19;55.05;;;8.15;;
52740;SDS011;38634;52.138;9.912;2023-12-29T12:51:26;63.95;;;9.00;;
52740;SDS011;38634;52.138;9.912;2023-12-29T12:54:11;65.97;;;9.07;;
52740;SDS011;38634;52.138;9.912;2023-12-29T12:56:57;75.68;;;10.57;;
52740;SDS011;38634;52.138;9.912;2023-12-29T12:59:42;72.82;;;10.23;;
52740;SDS011;38634;52.138;9.912;2023-12-29T13:02:27;46.40;;;7.03;;
52740;SDS011;38634;52.138;9.912;2023-12-29T13:05:12;62.50;;;8.73;;
52740;SDS011;38634;52.138;9.912;2023-12-29T13:07:59;87.90;;;12.23;;
52740;SDS011;38634;52.138;9.912;2023-12-29T13:10:45;62.67;;;8.82;;
52740;SDS011;38634;52.138;9.912;2023-12-29T13:13:37;54.15;;;7.82;;
52740;SDS011;38634;52.138;9.912;2023-12-29T13:16:30;78.03;;;11.00;;
52740;SDS011;38634;52.138;9.912;2023-12-29T13:19:19;53.17;;;7.45;;
52740;SDS011;38634;52.138;9.912;2023-12-29T13:22:07;68.57;;;9.88;;
52740;SDS011;38634;52.138;9.912;2023-12-29T13:24:53;66.18;;;9.85;;
52740;SDS011;38634;52.138;9.912;2023-12-29T13:27:38;49.88;;;7.38;;
52740;SDS011;38634;52.138;9.912;2023-12-29T13:30:23;77.57;;;11.40;;
52740;SDS011;38634;52.138;9.912;2023-12-29T13:33:12;80.30;;;11.65;;
52740;SDS011;38634;52.138;9.912;2023-12-29T13:36:38;47.63;;;7.47;;
52740;SDS011;38634;52.138;9.912;2023-12-29T13:40:14;43.45;;;6.70;;
52740;SDS011;38634;52.138;9.912;2023-12-29T13:43:09;74.68;;;10.32;;
52740;SDS011;38634;52.138;9.912;2023-12-29T13:45:55;48.63;;;7.40;;
52740;SDS011;38634;52.138;9.912;2023-12-29T13:48:40;49.40;;;7.72;;
52740;SDS011;38634;52.138;9.912;2023-12-29T13:51:25;82.78;;;13.07;;
52740;SDS011;38634;52.138;9.912;2023-12-29T13:54:10;76.65;;;12.00;;
52740;SDS011;38634;52.138;9.912;2023-12-29T13:56:55;45.38;;;6.97;;
52740;SDS011;38634;52.138;9.912;2023-12-29T13:59:39;51.05;;;8.27;;
52740;SDS011;38634;52.138;9.912;2023-12-29T14:02:28;79.45;;;12.23;;
52740;SDS011;38634;52.138;9.912;2023-12-29T14:05:19;58.85;;;8.98;;
52740;SDS011;38634;52.138;9.912;2023-12-29T14:08:08;63.88;;;10.05;;
52740;SDS011;38634;52.138;9.912;2023-12-29T14:11:10;46.42;;;7.57;;
52740;SDS011;38634;52.138;9.912;2023-12-29T14:13:55;65.18;;;10.07;;
52740;SDS011;38634;52.138;9.912;2023-12-29T14:16:40;78.22;;;11.77;;
52740;SDS011;38634;52.138;9.912;2023-12-29T14:19:24;58.58;;;9.90;;
52740;SDS011;38634;52.138;9.912;2023-12-29T14:22:09;39.45;;;6.50;;
52740;SDS011;38634;52.138;9.912;2023-12-29T14:25:03;56.47;;;9.23;;
52740;SDS011;38634;52.138;9.912;2023-12-29T14:27:52;34.95;;;5.72;;
52740;SDS011;38634;52.138;9.912;2023-12-29T14:30:37;54.47;;;8.82;;
52740;SDS011;38634;52.138;9.912;2023-12-29T14:33:22;54.08;;;8.48;;
52740;SDS011;38634;52.138;9.912;2023-12-29T14:36:07;75.03;;;11.82;;
52740;SDS011;38634;52.138;9.912;2023-12-29T14:38:51;50.22;;;8.00;;
52740;SDS011;38634;52.138;9.912;2023-12-29T14:41:36;41.13;;;6.88;;
52740;SDS011;38634;52.138;9.912;2023-12-29T14:44:21;67.78;;;10.63;;
52740;SDS011;38634;52.138;9.912;2023-12-29T14:47:07;72.80;;;11.30;;
52740;SDS011;38634;52.138;9.912;2023-12-29T14:49:52;45.15;;;7.03;;
52740;SDS011;38634;52.138;9.912;2023-12-29T14:52:37;49.83;;;7.68;;
52740;SDS011;38634;52.138;9.912;2023-12-29T14:55:22;72.90;;;12.18;;
52740;SDS011;38634;52.138;9.912;2023-12-29T14:58:08;69.65;;;10.43;;
52740;SDS011;38634;52.138;9.912;2023-12-29T15:00:53;47.50;;;7.60;;
52740;SDS011;38634;52.138;9.912;2023-12-29T15:03:37;55.47;;;8.70;;
52740;SDS011;38634;52.138;9.912;2023-12-29T15:06:22;72.82;;;11.10;;
52740;SDS011;38634;52.138;9.912;2023-12-29T15:09:06;71.47;;;11.20;;
52740;SDS011;38634;52.138;9.912;2023-12-29T15:11:54;49.13;;;7.90;;
52740;SDS011;38634;52.138;9.912;2023-12-29T15:14:38;52.03;;;8.15;;
52740;SDS011;38634;52.138;9.912;2023-12-29T15:17:23;74.30;;;11.40;;
52740;SDS011;38634;52.138;9.912;2023-12-29T15:20:08;85.70;;;12.85;;
52740;SDS011;38634;52.138;9.912;2023-12-29T15:22:53;59.28;;;9.50;;
52740;SDS011;38634;52.138;9.912;2023-12-29T15:25:38;50.90;;;8.13;;
52740;SDS011;38634;52.138;9.912;2023-12-29T15:28:23;79.47;;;12.45;;
52740;SDS011;38634;52.138;9.912;2023-12-29T15:31:07;63.25;;;9.88;;
52740;SDS011;38634;52.138;9.912;2023-12-29T15:33:54;49.70;;;8.15;;
52740;SDS011;38634;52.138;9.912;2023-12-29T15:36:39;48.65;;;8.07;;
52740;SDS011;38634;52.138;9.912;2023-12-29T15:39:23;69.93;;;11.50;;
52740;SDS011;38634;52.138;9.912;2023-12-29T15:42:08;77.68;;;11.82;;
52740;SDS011;38634;52.138;9.912;2023-12-29T15:44:52;46.83;;;7.57;;
52740;SDS011;38634;52.138;9.912;2023-12-29T15:47:37;43.00;;;7.57;;
52740;SDS011;38634;52.138;9.912;2023-12-29T15:50:22;77.95;;;11.60;;
52740;SDS011;38634;52.138;9.912;2023-12-29T15:53:06;80.57;;;11.77;;
52740;SDS011;38634;52.138;9.912;2023-12-29T15:55:51;64.00;;;9.15;;
52740;SDS011;38634;52.138;9.912;2023-12-29T15:58:35;45.83;;;6.95;;
52740;SDS011;38634;52.138;9.912;2023-12-29T16:01:21;67.28;;;9.93;;
52740;SDS011;38634;52.138;9.912;2023-12-29T16:04:10;78.28;;;11.57;;
52740;SDS011;38634;52.138;9.912;2023-12-29T16:06:55;40.85;;;6.65;;
52740;SDS011;38634;52.138;9.912;2023-12-29T16:09:40;47.03;;;7.28;;
52740;SDS011;38634;52.138;9.912;2023-12-29T16:12:25;78.05;;;11.15;;
52740;SDS011;38634;52.138;9.912;2023-12-29T16:15:10;78.00;;;11.25;;
52740;SDS011;38634;52.138;9.912;2023-12-29T16:17:54;56.30;;;8.07;;
52740;SDS011;38634;52.138;9.912;2023-12-29T16:20:39;57.42;;;8.52;;
52740;SDS011;38634;52.138;9.912;2023-12-29T16:23:24;72.95;;;10.85;;
52740;SDS011;38634;52.138;9.912;2023-12-29T16:26:08;90.78;;;12.27;;
52740;SDS011;38634;52.138;9.912;2023-12-29T16:28:53;58.17;;;8.30;;
52740;SDS011;38634;52.138;9.912;2023-12-29T16:31:38;49.17;;;7.18;;
52740;SDS011;38634;52.138;9.912;2023-12-29T16:34:23;86.22;;;11.52;;
52740;SDS011;38634;52.138;9.912;2023-12-29T16:37:08;96.93;;;13.35;;
52740;SDS011;38634;52.138;9.912;2023-12-29T16:39:53;74.10;;;10.07;;
52740;SDS011;38634;52.138;9.912;2023-12-29T16:42:37;48.33;;;6.95;;
52740;SDS011;38634;52.138;9.912;2023-12-29T16:45:25;84.93;;;11.45;;
52740;SDS011;38634;52.138;9.912;2023-12-29T16:48:11;93.70;;;11.80;;
52740;SDS011;38634;52.138;9.912;2023-12-29T16:50:56;47.58;;;6.75;;
52740;SDS011;38634;52.138;9.912;2023-12-29T16:53:41;41.97;;;6.35;;
52740;SDS011;38634;52.138;9.912;2023-12-29T16:56:26;88.40;;;12.13;;
52740;SDS011;38634;52.138;9.912;2023-12-29T16:59:10;99.00;;;12.38;;
52740;SDS011;38634;52.138;9.912;2023-12-29T17:01:55;53.67;;;7.60;;
52740;SDS011;38634;52.138;9.912;2023-12-29T17:04:40;45.45;;;6.85;;
52740;SDS011;38634;52.138;9.912;2023-12-29T17:07:25;82.57;;;11.50;;
52740;SDS011;38634;52.138;9.912;2023-12-29T17:10:10;84.55;;;11.55;;
52740;SDS011;38634;52.138;9.912;2023-12-29T17:12:54;63.45;;;9.13;;
52740;SDS011;38634;52.138;9.912;2023-12-29T17:15:39;45.03;;;6.97;;
52740;SDS011;38634;52.138;9.912;2023-12-29T17:18:24;68.18;;;9.73;;
52740;SDS011;38634;52.138;9.912;2023-12-29T17:21:09;92.35;;;12.70;;
52740;SDS011;38634;52.138;9.912;2023-12-29T17:23:54;72.60;;;10.20;;
52740;SDS011;38634;52.138;9.912;2023-12-29T17:26:38;51.85;;;7.80;;
52740;SDS011;38634;52.138;9.912;2023-12-29T17:29:23;62.17;;;9.23;;
52740;SDS011;38634;52.138;9.912;2023-12-29T17:32:10;95.75;;;12.77;;
52740;SDS011;38634;52.138;9.912;2023-12-29T17:34:54;85.35;;;11.65;;
52740;SDS011;38634;52.138;9.912;2023-12-29T17:37:39;46.90;;;7.28;;
52740;SDS011;38634;52.138;9.912;2023-12-29T17:40:24;65.00;;;9.65;;
52740;SDS011;38634;52.138;9.912;2023-12-29T17:43:08;92.18;;;12.35;;
52740;SDS011;38634;52.138;9.912;2023-12-29T17:45:53;88.20;;;12.05;;
52740;SDS011;38634;52.138;9.912;2023-12-29T17:48:37;55.58;;;8.48;;
52740;SDS011;38634;52.138;9.912;2023-12-29T17:51:23;52.05;;;8.20;;
52740;SDS011;38634;52.138;9.912;2023-12-29T17:54:12;84.47;;;12.15;;
52740;SDS011;38634;52.138;9.912;2023-12-29T17:56:57;78.05;;;11.13;;
52740;SDS011;38634;52.138;9.912;2023-12-29T17:59:41;49.88;;;7.70;;
52740;SDS011;38634;52.138;9.912;2023-12-29T18:02:26;59.80;;;8.80;;
52740;SDS011;38634;52.138;9.912;2023-12-29T18:05:15;89.97;;;12.32;;
52740;SDS011;38634;52.138;9.912;2023-12-29T18:07:59;69.45;;;10.05;;
52740;SDS011;38634;52.138;9.912;2023-12-29T18:10:44;60.25;;;9.73;;
52740;SDS011;38634;52.138;9.912;2023-12-29T18:13:32;29.80;;;5.20;;
52740;SDS011;38634;52.138;9.912;2023-12-29T18:16:18;32.72;;;6.50;;
52740;SDS011;38634;52.138;9.912;2023-12-29T18:19:03;30.90;;;6.22;;
52740;SDS011;38634;52.138;9.912;2023-12-29T18:21:47;28.13;;;5.07;;
52740;SDS011;38634;52.138;9.912;2023-12-29T18:24:32;27.05;;;4.65;;
52740;SDS011;38634;52.138;9.912;2023-12-29T18:27:17;29.70;;;4.90;;
52740;SDS011;38634;52.138;9.912;2023-12-29T18:30:01;26.13;;;4.63;;
52740;SDS011;38634;52.138;9.912;2023-12-29T18:32:46;16.27;;;3.13;;
52740;SDS011;38634;52.138;9.912;2023-12-29T18:35:31;21.48;;;4.05;;
52740;SDS011;38634;52.138;9.912;2023-12-29T18:38:15;23.70;;;4.13;;
52740;SDS011;38634;52.138;9.912;2023-12-29T18:41:07;24.83;;;4.57;;
52740;SDS011;38634;52.138;9.912;2023-12-29T18:43:52;24.88;;;4.35;;
52740;SDS011;38634;52.138;9.912;2023-12-29T18:46:37;23.58;;;4.03;;
52740;SDS011;38634;52.138;9.912;2023-12-29T18:49:21;22.13;;;3.85;;
52740;SDS011;38634;52.138;9.912;2023-12-29T18:52:06;20.25;;;3.78;;
52740;SDS011;38634;52.138;9.912;2023-12-29T18:54:50;21.85;;;4.22;;
52740;SDS011;38634;52.138;9.912;2023-12-29T18:57:35;19.70;;;3.67;;
52740;SDS011;38634;52.138;9.912;2023-12-29T19:00:20;31.77;;;5.20;;
52740;SDS011;38634;52.138;9.912;2023-12-29T19:03:04;23.45;;;4.63;;
52740;SDS011;38634;52.138;9.912;2023-12-29T19:05:49;22.52;;;4.05;;
52740;SDS011;38634;52.138;9.912;2023-12-29T19:08:34;24.95;;;4.35;;
52740;SDS011;38634;52.138;9.912;2023-12-29T19:11:19;18.80;;;3.60;;
52740;SDS011;38634;52.138;9.912;2023-12-29T19:14:04;22.05;;;4.00;;
52740;SDS011;38634;52.138;9.912;2023-12-29T19:16:49;22.92;;;4.10;;
52740;SDS011;38634;52.138;9.912;2023-12-29T19:19:34;22.25;;;4.05;;
52740;SDS011;38634;52.138;9.912;2023-12-29T19:22:20;24.02;;;4.22;;
52740;SDS011;38634;52.138;9.912;2023-12-29T19:25:04;21.90;;;3.95;;
52740;SDS011;38634;52.138;9.912;2023-12-29T19:27:49;18.73;;;3.45;;
52740;SDS011;38634;52.138;9.912;2023-12-29T19:30:34;31.50;;;5.85;;
52740;SDS011;38634;52.138;9.912;2023-12-29T19:33:18;17.05;;;3.25;;
52740;SDS011;38634;52.138;9.912;2023-12-29T19:36:03;21.17;;;3.92;;
52740;SDS011;38634;52.138;9.912;2023-12-29T19:38:49;23.75;;;4.18;;
52740;SDS011;38634;52.138;9.912;2023-12-29T19:41:34;23.60;;;4.20;;
52740;SDS011;38634;52.138;9.912;2023-12-29T19:44:19;26.50;;;4.38;;
52740;SDS011;38634;52.138;9.912;2023-12-29T19:47:04;24.48;;;4.18;;
52740;SDS011;38634;52.138;9.912;2023-12-29T19:49:48;23.02;;;4.13;;
52740;SDS011;38634;52.138;9.912;2023-12-29T19:52:33;52.33;;;26.55;;
52740;SDS011;38634;52.138;9.912;2023-12-29T19:55:17;35.55;;;12.82;;
52740;SDS011;38634;52.138;9.912;2023-12-29T19:58:02;22.48;;;4.97;;
52740;SDS011;38634;52.138;9.912;2023-12-29T20:00:47;25.15;;;5.28;;
52740;SDS011;38634;52.138;9.912;2023-12-29T20:03:32;23.17;;;3.97;;
52740;SDS011;38634;52.138;9.912;2023-12-29T20:06:20;22.77;;;4.00;;
52740;SDS011;38634;52.138;9.912;2023-12-29T20:09:06;23.05;;;4.28;;
52740;SDS011;38634;52.138;9.912;2023-12-29T20:11:51;22.92;;;4.10;;
52740;SDS011;38634;52.138;9.912;2023-12-29T20:14:35;19.25;;;3.45;;
52740;SDS011;38634;52.138;9.912;2023-12-29T20:17:20;25.73;;;4.63;;
52740;SDS011;38634;52.138;9.912;2023-12-29T20:20:05;19.83;;;3.67;;
52740;SDS011;38634;52.138;9.912;2023-12-29T20:22:53;19.27;;;3.55;;
52740;SDS011;38634;52.138;9.912;2023-12-29T20:25:39;18.52;;;3.53;;
52740;SDS011;38634;52.138;9.912;2023-12-29T20:28:28;21.48;;;3.83;;
52740;SDS011;38634;52.138;9.912;2023-12-29T20:31:21;25.38;;;4.18;;
52740;SDS011;38634;52.138;9.912;2023-12-29T20:34:16;24.52;;;4.18;;
52740;SDS011;38634;52.138;9.912;2023-12-29T20:37:00;16.98;;;3.75;;
52740;SDS011;38634;52.138;9.912;2023-12-29T20:39:45;23.90;;;4.65;;
52740;SDS011;38634;52.138;9.912;2023-12-29T20:42:29;26.85;;;12.90;;
52740;SDS011;38634;52.138;9.912;2023-12-29T20:45:14;41.03;;;11.50;;
52740;SDS011;38634;52.138;9.912;2023-12-29T20:47:59;32.15;;;4.95;;
52740;SDS011;38634;52.138;9.912;2023-12-29T20:50:43;26.00;;;4.35;;
52740;SDS011;38634;52.138;9.912;2023-12-29T20:53:28;15.88;;;3.22;;
52740;SDS011;38634;52.138;9.912;2023-12-29T20:56:12;20.83;;;3.88;;
52740;SDS011;38634;52.138;9.912;2023-12-29T20:58:57;21.08;;;3.70;;
52740;SDS011;38634;52.138;9.912;2023-12-29T21:01:42;16.80;;;3.28;;
52740;SDS011;38634;52.138;9.912;2023-12-29T21:04:27;22.35;;;3.92;;
52740;SDS011;38634;52.138;9.912;2023-12-29T21:07:11;20.05;;;3.65;;
52740;SDS011;38634;52.138;9.912;2023-12-29T21:09:56;20.67;;;3.83;;
52740;SDS011;38634;52.138;9.912;2023-12-29T21:12:40;16.25;;;3.45;;
52740;SDS011;38634;52.138;9.912;2023-12-29T21:15:25;22.10;;;3.90;;
52740;SDS011;38634;52.138;9.912;2023-12-29T21:18:10;16.25;;;3.38;;
52740;SDS011;38634;52.138;9.912;2023-12-29T21:20:54;21.13;;;3.72;;
52740;SDS011;38634;52.138;9.912;2023-12-29T21:23:39;18.10;;;3.75;;
52740;SDS011;38634;52.138;9.912;2023-12-29T21:26:23;23.20;;;4.18;;
52740;SDS011;38634;52.138;9.912;2023-12-29T21:29:08;21.67;;;4.00;;
52740;SDS011;38634;52.138;9.912;2023-12-29T21:31:53;18.45;;;3.65;;
52740;SDS011;38634;52.138;9.912;2023-12-29T21:34:39;25.10;;;4.55;;
52740;SDS011;38634;52.138;9.912;2023-12-29T21:37:23;27.02;;;4.72;;
52740;SDS011;38634;52.138;9.912;2023-12-29T21:40:09;25.95;;;4.32;;
52740;SDS011;38634;52.138;9.912;2023-12-29T21:42:53;23.90;;;4.22;;
52740;SDS011;38634;52.138;9.912;2023-12-29T21:45:38;24.45;;;4.25;;
52740;SDS011;38634;52.138;9.912;2023-12-29T21:48:23;22.98;;;3.92;;
52740;SDS011;38634;52.138;9.912;2023-12-29T21:51:08;24.23;;;4.07;;
52740;SDS011;38634;52.138;9.912;2023-12-29T21:53:53;21.88;;;3.88;;
52740;SDS011;38634;52.138;9.912;2023-12-29T21:56:37;25.50;;;4.43;;
52740;SDS011;38634;52.138;9.912;2023-12-29T21:59:22;27.65;;;4.70;;
52740;SDS011;38634;52.138;9.912;2023-12-29T22:02:07;21.65;;;3.92;;
52740;SDS011;38634;52.138;9.912;2023-12-29T22:04:53;21.40;;;4.15;;
52740;SDS011;38634;52.138;9.912;2023-12-29T22:07:37;25.52;;;4.32;;
52740;SDS011;38634;52.138;9.912;2023-12-29T22:10:23;30.67;;;5.00;;
52740;SDS011;38634;52.138;9.912;2023-12-29T22:13:08;24.98;;;4.57;;
52740;SDS011;38634;52.138;9.912;2023-12-29T22:15:52;22.83;;;4.28;;
52740;SDS011;38634;52.138;9.912;2023-12-29T22:18:37;25.23;;;4.63;;
52740;SDS011;38634;52.138;9.912;2023-12-29T22:21:22;21.38;;;3.90;;
52740;SDS011;38634;52.138;9.912;2023-12-29T22:24:07;25.63;;;4.43;;
52740;SDS011;38634;52.138;9.912;2023-12-29T22:26:52;20.30;;;3.67;;
52740;SDS011;38634;52.138;9.912;2023-12-29T22:29:36;23.67;;;4.28;;